sensor_id;sensor_type;location;lat;lon;timestamp;P1;durP1;ratioP1;P2;durP2;ratioP2
568;SDS011;269;48.884;9.192;2023-03-01T00:01:00;15.02;;;13.38;;
568;SDS011;269;48.884;9.192;2023-03-01T00:03:27;14.55;;;12.93;;
568;SDS011;269;48.884;9.192;2023-03-01T00:05:54;16.55;;;14.85;;
568;SDS011;269;48.884;9.192;2023-03-01T00:08:22;16.95;;;14.68;;
568;SDS011;269;48.884;9.192;2023-03-01T00:10:49;15.43;;;13.77;;
568;SDS011;269;48.884;9.192;2023-03-01T00:13:26;16.13;;;13.40;;
568;SDS011;269;48.884;9.192;2023-03-01T00:15:53;18.42;;;14.13;;
568;SDS011;269;48.884;9.192;2023-03-01T00:18:20;14.60;;;12.57;;
568;SDS011;269;48.884;9.192;2023-03-01T00:20:49;16.38;;;14.15;;
568;SDS011;269;48.884;9.192;2023-03-01T00:23:17;16.23;;;13.65;;
568;SDS011;269;48.884;9.192;2023-03-01T00:25:45;15.80;;;13.70;;
568;SDS011;269;48.884;9.192;2023-03-01T00:28:12;16.08;;;13.25;;
568;SDS011;269;48.884;9.192;2023-03-01T00:30:39;17.90;;;14.38;;
568;SDS011;269;48.884;9.192;2023-03-01T00:33:06;19.77;;;15.85;;
568;SDS011;269;48.884;9.192;2023-03-01T00:35:34;15.40;;;13.85;;
568;SDS011;269;48.884;9.192;2023-03-01T00:38:02;16.42;;;13.80;;
568;SDS011;269;48.884;9.192;2023-03-01T00:40:30;16.70;;;14.95;;
568;SDS011;269;48.884;9.192;2023-03-01T00:43:00;16.30;;;14.55;;
568;SDS011;269;48.884;9.192;2023-03-01T00:45:28;16.58;;;14.30;;
568;SDS011;269;48.884;9.192;2023-03-01T00:47:56;16.55;;;14.38;;
568;SDS011;269;48.884;9.192;2023-03-01T00:50:23;15.85;;;13.75;;
568;SDS011;269;48.884;9.192;2023-03-01T00:52:52;16.90;;;14.45;;
568;SDS011;269;48.884;9.192;2023-03-01T00:55:19;16.33;;;14.52;;
568;SDS011;269;48.884;9.192;2023-03-01T00:57:47;15.02;;;13.43;;
568;SDS011;269;48.884;9.192;2023-03-01T01:00:16;16.05;;;14.10;;
568;SDS011;269;48.884;9.192;2023-03-01T01:02:43;16.25;;;14.05;;
568;SDS011;269;48.884;9.192;2023-03-01T01:05:11;15.43;;;13.77;;
568;SDS011;269;48.884;9.192;2023-03-01T01:07:37;16.13;;;14.43;;
568;SDS011;269;48.884;9.192;2023-03-01T01:10:05;15.98;;;13.82;;
568;SDS011;269;48.884;9.192;2023-03-01T01:12:33;16.90;;;14.00;;
568;SDS011;269;48.884;9.192;2023-03-01T01:15:00;18.67;;;15.50;;
568;SDS011;269;48.884;9.192;2023-03-01T01:17:28;16.15;;;14.45;;
568;SDS011;269;48.884;9.192;2023-03-01T01:19:56;17.13;;;14.90;;
568;SDS011;269;48.884;9.192;2023-03-01T01:22:22;18.40;;;13.60;;
568;SDS011;269;48.884;9.192;2023-03-01T01:24:49;16.40;;;14.10;;
568;SDS011;269;48.884;9.192;2023-03-01T01:27:17;17.20;;;15.38;;
568;SDS011;269;48.884;9.192;2023-03-01T01:29:44;18.60;;;14.15;;
568;SDS011;269;48.884;9.192;2023-03-01T01:32:10;18.02;;;14.25;;
568;SDS011;269;48.884;9.192;2023-03-01T01:34:39;16.65;;;13.88;;
568;SDS011;269;48.884;9.192;2023-03-01T01:37:06;17.58;;;14.40;;
568;SDS011;269;48.884;9.192;2023-03-01T01:39:33;19.80;;;15.73;;
568;SDS011;269;48.884;9.192;2023-03-01T01:42:01;16.90;;;15.10;;
568;SDS011;269;48.884;9.192;2023-03-01T01:44:28;17.02;;;14.82;;
568;SDS011;269;48.884;9.192;2023-03-01T01:46:56;17.17;;;14.48;;
568;SDS011;269;48.884;9.192;2023-03-01T01:49:27;18.20;;;13.88;;
568;SDS011;269;48.884;9.192;2023-03-01T01:51:59;17.73;;;15.80;;
568;SDS011;269;48.884;9.192;2023-03-01T01:54:34;17.67;;;14.80;;
568;SDS011;269;48.884;9.192;2023-03-01T01:57:11;18.50;;;14.68;;
568;SDS011;269;48.884;9.192;2023-03-01T01:59:42;16.65;;;14.95;;
568;SDS011;269;48.884;9.192;2023-03-01T02:02:13;17.15;;;15.07;;
568;SDS011;269;48.884;9.192;2023-03-01T02:04:40;20.23;;;15.63;;
568;SDS011;269;48.884;9.192;2023-03-01T02:07:13;17.33;;;15.05;;
568;SDS011;269;48.884;9.192;2023-03-01T02:09:42;16.10;;;13.75;;
568;SDS011;269;48.884;9.192;2023-03-01T02:12:11;16.98;;;14.50;;
568;SDS011;269;48.884;9.192;2023-03-01T02:14:39;16.50;;;14.73;;
568;SDS011;269;48.884;9.192;2023-03-01T02:17:06;19.00;;;15.45;;
568;SDS011;269;48.884;9.192;2023-03-01T02:19:38;17.50;;;14.23;;
568;SDS011;269;48.884;9.192;2023-03-01T02:22:18;17.20;;;15.15;;
568;SDS011;269;48.884;9.192;2023-03-01T02:24:53;15.90;;;14.30;;
568;SDS011;269;48.884;9.192;2023-03-01T02:27:32;16.70;;;14.73;;
568;SDS011;269;48.884;9.192;2023-03-01T02:30:05;17.55;;;15.60;;
568;SDS011;269;48.884;9.192;2023-03-01T02:32:33;18.48;;;14.98;;
568;SDS011;269;48.884;9.192;2023-03-01T02:35:00;20.15;;;15.20;;
568;SDS011;269;48.884;9.192;2023-03-01T02:37:32;17.02;;;14.90;;
568;SDS011;269;48.884;9.192;2023-03-01T02:40:03;17.67;;;14.98;;
568;SDS011;269;48.884;9.192;2023-03-01T02:42:39;17.92;;;14.52;;
568;SDS011;269;48.884;9.192;2023-03-01T02:45:13;19.00;;;16.20;;
568;SDS011;269;48.884;9.192;2023-03-01T02:47:40;18.00;;;14.98;;
568;SDS011;269;48.884;9.192;2023-03-01T02:50:11;17.73;;;15.60;;
568;SDS011;269;48.884;9.192;2023-03-01T02:52:45;17.25;;;14.23;;
568;SDS011;269;48.884;9.192;2023-03-01T02:55:19;18.15;;;14.82;;
568;SDS011;269;48.884;9.192;2023-03-01T02:57:46;17.00;;;15.02;;
568;SDS011;269;48.884;9.192;2023-03-01T03:00:18;18.65;;;15.63;;
568;SDS011;269;48.884;9.192;2023-03-01T03:02:48;17.05;;;15.07;;
568;SDS011;269;48.884;9.192;2023-03-01T03:05:18;18.83;;;15.52;;
568;SDS011;269;48.884;9.192;2023-03-01T03:07:47;16.98;;;14.65;;
568;SDS011;269;48.884;9.192;2023-03-01T03:10:16;16.80;;;15.07;;
568;SDS011;269;48.884;9.192;2023-03-01T03:12:48;17.15;;;14.18;;
568;SDS011;269;48.884;9.192;2023-03-01T03:15:15;17.02;;;14.82;;
568;SDS011;269;48.884;9.192;2023-03-01T03:17:46;19.45;;;15.20;;
568;SDS011;269;48.884;9.192;2023-03-01T03:20:14;18.75;;;16.15;;
568;SDS011;269;48.884;9.192;2023-03-01T03:22:44;17.45;;;14.85;;
568;SDS011;269;48.884;9.192;2023-03-01T03:25:12;17.55;;;15.57;;
568;SDS011;269;48.884;9.192;2023-03-01T03:27:39;17.50;;;15.30;;
568;SDS011;269;48.884;9.192;2023-03-01T03:30:08;18.70;;;14.82;;
568;SDS011;269;48.884;9.192;2023-03-01T03:32:39;16.92;;;14.90;;
568;SDS011;269;48.884;9.192;2023-03-01T03:35:07;18.48;;;15.13;;
568;SDS011;269;48.884;9.192;2023-03-01T03:37:36;17.92;;;15.18;;
568;SDS011;269;48.884;9.192;2023-03-01T03:40:20;19.95;;;16.10;;
568;SDS011;269;48.884;9.192;2023-03-01T03:42:48;15.80;;;14.10;;
568;SDS011;269;48.884;9.192;2023-03-01T03:45:15;16.58;;;14.63;;
568;SDS011;269;48.884;9.192;2023-03-01T03:47:43;18.23;;;15.68;;
568;SDS011;269;48.884;9.192;2023-03-01T03:50:11;18.20;;;16.02;;
568;SDS011;269;48.884;9.192;2023-03-01T03:52:39;17.45;;;15.30;;
568;SDS011;269;48.884;9.192;2023-03-01T03:55:07;17.88;;;15.30;;
568;SDS011;269;48.884;9.192;2023-03-01T03:57:36;16.60;;;14.73;;
568;SDS011;269;48.884;9.192;2023-03-01T04:00:03;16.35;;;14.60;;
568;SDS011;269;48.884;9.192;2023-03-01T04:02:38;17.65;;;15.77;;
568;SDS011;269;48.884;9.192;2023-03-01T04:05:07;16.08;;;14.07;;
568;SDS011;269;48.884;9.192;2023-03-01T04:07:35;16.33;;;13.70;;
568;SDS011;269;48.884;9.192;2023-03-01T04:10:03;17.00;;;15.07;;
568;SDS011;269;48.884;9.192;2023-03-01T04:12:32;19.17;;;15.50;;
568;SDS011;269;48.884;9.192;2023-03-01T04:15:00;18.55;;;16.20;;
568;SDS011;269;48.884;9.192;2023-03-01T04:17:27;17.20;;;15.40;;
568;SDS011;269;48.884;9.192;2023-03-01T04:19:54;16.45;;;14.50;;
568;SDS011;269;48.884;9.192;2023-03-01T04:22:22;16.70;;;15.00;;
568;SDS011;269;48.884;9.192;2023-03-01T04:24:55;20.40;;;16.42;;
568;SDS011;269;48.884;9.192;2023-03-01T04:27:22;17.40;;;15.50;;
568;SDS011;269;48.884;9.192;2023-03-01T04:29:50;16.92;;;15.10;;
568;SDS011;269;48.884;9.192;2023-03-01T04:32:17;17.48;;;15.02;;
568;SDS011;269;48.884;9.192;2023-03-01T04:34:44;18.73;;;16.73;;
568;SDS011;269;48.884;9.192;2023-03-01T04:37:11;17.40;;;14.85;;
568;SDS011;269;48.884;9.192;2023-03-01T04:39:39;17.42;;;15.50;;
568;SDS011;269;48.884;9.192;2023-03-01T04:42:10;17.52;;;14.88;;
568;SDS011;269;48.884;9.192;2023-03-01T04:44:37;17.00;;;15.30;;
568;SDS011;269;48.884;9.192;2023-03-01T04:47:04;18.88;;;16.23;;
568;SDS011;269;48.884;9.192;2023-03-01T04:49:31;20.15;;;16.30;;
568;SDS011;269;48.884;9.192;2023-03-01T04:51:59;17.60;;;15.02;;
568;SDS011;269;48.884;9.192;2023-03-01T04:54:27;16.48;;;14.70;;
568;SDS011;269;48.884;9.192;2023-03-01T04:56:55;18.00;;;15.63;;
568;SDS011;269;48.884;9.192;2023-03-01T04:59:23;16.77;;;15.00;;
568;SDS011;269;48.884;9.192;2023-03-01T05:01:50;17.70;;;15.55;;
568;SDS011;269;48.884;9.192;2023-03-01T05:04:17;17.40;;;15.60;;
568;SDS011;269;48.884;9.192;2023-03-01T05:06:45;19.20;;;16.05;;
568;SDS011;269;48.884;9.192;2023-03-01T05:09:12;16.40;;;14.68;;
568;SDS011;269;48.884;9.192;2023-03-01T05:11:38;16.67;;;14.98;;
568;SDS011;269;48.884;9.192;2023-03-01T05:14:07;17.10;;;15.40;;
568;SDS011;269;48.884;9.192;2023-03-01T05:16:35;17.40;;;15.45;;
568;SDS011;269;48.884;9.192;2023-03-01T05:19:03;17.98;;;15.80;;
568;SDS011;269;48.884;9.192;2023-03-01T05:21:36;17.08;;;15.25;;
568;SDS011;269;48.884;9.192;2023-03-01T05:24:24;19.60;;;16.73;;
568;SDS011;269;48.884;9.192;2023-03-01T05:26:52;17.25;;;15.40;;
568;SDS011;269;48.884;9.192;2023-03-01T05:29:21;18.60;;;15.35;;
568;SDS011;269;48.884;9.192;2023-03-01T05:31:51;17.92;;;15.30;;
568;SDS011;269;48.884;9.192;2023-03-01T05:34:22;19.70;;;15.85;;
568;SDS011;269;48.884;9.192;2023-03-01T05:36:50;17.33;;;15.45;;
568;SDS011;269;48.884;9.192;2023-03-01T05:39:19;18.60;;;15.18;;
568;SDS011;269;48.884;9.192;2023-03-01T05:41:48;16.95;;;15.25;;
568;SDS011;269;48.884;9.192;2023-03-01T05:44:18;17.23;;;14.95;;
568;SDS011;269;48.884;9.192;2023-03-01T05:46:46;17.70;;;15.90;;
568;SDS011;269;48.884;9.192;2023-03-01T05:49:15;18.83;;;16.83;;
568;SDS011;269;48.884;9.192;2023-03-01T05:51:42;18.73;;;16.58;;
568;SDS011;269;48.884;9.192;2023-03-01T05:54:13;19.00;;;17.00;;
568;SDS011;269;48.884;9.192;2023-03-01T05:56:41;17.98;;;16.00;;
568;SDS011;269;48.884;9.192;2023-03-01T05:59:08;21.83;;;19.63;;
568;SDS011;269;48.884;9.192;2023-03-01T06:01:35;21.23;;;19.13;;
568;SDS011;269;48.884;9.192;2023-03-01T06:04:04;21.27;;;19.15;;
568;SDS011;269;48.884;9.192;2023-03-01T06:06:33;18.67;;;16.67;;
568;SDS011;269;48.884;9.192;2023-03-01T06:09:02;18.85;;;16.95;;
568;SDS011;269;48.884;9.192;2023-03-01T06:11:30;20.08;;;18.05;;
568;SDS011;269;48.884;9.192;2023-03-01T06:13:56;19.02;;;17.02;;
568;SDS011;269;48.884;9.192;2023-03-01T06:16:24;18.58;;;16.35;;
568;SDS011;269;48.884;9.192;2023-03-01T06:18:50;21.80;;;17.77;;
568;SDS011;269;48.884;9.192;2023-03-01T06:21:19;18.00;;;16.20;;
568;SDS011;269;48.884;9.192;2023-03-01T06:23:46;18.38;;;16.40;;
568;SDS011;269;48.884;9.192;2023-03-01T06:26:13;19.70;;;17.60;;
568;SDS011;269;48.884;9.192;2023-03-01T06:28:40;19.17;;;15.90;;
568;SDS011;269;48.884;9.192;2023-03-01T06:31:08;22.63;;;18.02;;
568;SDS011;269;48.884;9.192;2023-03-01T06:33:34;23.08;;;19.00;;
568;SDS011;269;48.884;9.192;2023-03-01T06:36:02;18.95;;;15.98;;
568;SDS011;269;48.884;9.192;2023-03-01T06:38:31;19.90;;;17.80;;
568;SDS011;269;48.884;9.192;2023-03-01T06:40:58;18.58;;;16.40;;
568;SDS011;269;48.884;9.192;2023-03-01T06:43:25;19.77;;;17.67;;
568;SDS011;269;48.884;9.192;2023-03-01T06:45:52;19.05;;;16.88;;
568;SDS011;269;48.884;9.192;2023-03-01T06:48:19;17.90;;;16.10;;
568;SDS011;269;48.884;9.192;2023-03-01T06:50:45;19.13;;;15.73;;
568;SDS011;269;48.884;9.192;2023-03-01T06:53:13;19.42;;;16.65;;
568;SDS011;269;48.884;9.192;2023-03-01T06:55:41;18.30;;;16.05;;
568;SDS011;269;48.884;9.192;2023-03-01T06:58:08;21.50;;;16.95;;
568;SDS011;269;48.884;9.192;2023-03-01T07:00:36;22.13;;;16.77;;
568;SDS011;269;48.884;9.192;2023-03-01T07:03:02;18.85;;;16.65;;
568;SDS011;269;48.884;9.192;2023-03-01T07:05:30;18.73;;;16.73;;
568;SDS011;269;48.884;9.192;2023-03-01T07:07:57;23.63;;;17.88;;
568;SDS011;269;48.884;9.192;2023-03-01T07:10:24;19.35;;;15.65;;
568;SDS011;269;48.884;9.192;2023-03-01T07:12:55;21.10;;;17.42;;
568;SDS011;269;48.884;9.192;2023-03-01T07:15:22;19.42;;;17.33;;
568;SDS011;269;48.884;9.192;2023-03-01T07:17:49;20.38;;;16.30;;
568;SDS011;269;48.884;9.192;2023-03-01T07:20:16;19.30;;;17.20;;
568;SDS011;269;48.884;9.192;2023-03-01T07:22:44;19.25;;;16.48;;
568;SDS011;269;48.884;9.192;2023-03-01T07:25:11;18.75;;;16.38;;
568;SDS011;269;48.884;9.192;2023-03-01T07:27:38;21.35;;;18.00;;
568;SDS011;269;48.884;9.192;2023-03-01T07:30:08;18.15;;;16.20;;
568;SDS011;269;48.884;9.192;2023-03-01T07:32:36;18.90;;;16.90;;
568;SDS011;269;48.884;9.192;2023-03-01T07:35:03;24.92;;;17.30;;
568;SDS011;269;48.884;9.192;2023-03-01T07:37:31;22.02;;;15.93;;
568;SDS011;269;48.884;9.192;2023-03-01T07:39:58;19.85;;;17.70;;
568;SDS011;269;48.884;9.192;2023-03-01T07:42:25;18.98;;;17.00;;
568;SDS011;269;48.884;9.192;2023-03-01T07:44:52;24.40;;;19.05;;
568;SDS011;269;48.884;9.192;2023-03-01T07:47:20;26.67;;;20.00;;
568;SDS011;269;48.884;9.192;2023-03-01T07:49:47;20.63;;;17.63;;
568;SDS011;269;48.884;9.192;2023-03-01T07:52:14;20.90;;;17.52;;
568;SDS011;269;48.884;9.192;2023-03-01T07:54:42;20.40;;;18.30;;
568;SDS011;269;48.884;9.192;2023-03-01T07:57:09;18.50;;;16.60;;
568;SDS011;269;48.884;9.192;2023-03-01T07:59:37;20.42;;;18.30;;
568;SDS011;269;48.884;9.192;2023-03-01T08:02:05;18.92;;;16.98;;
568;SDS011;269;48.884;9.192;2023-03-01T08:04:33;21.50;;;16.90;;
568;SDS011;269;48.884;9.192;2023-03-01T08:07:00;22.70;;;17.23;;
568;SDS011;269;48.884;9.192;2023-03-01T08:09:27;22.70;;;18.40;;
568;SDS011;269;48.884;9.192;2023-03-01T08:11:55;19.00;;;17.02;;
568;SDS011;269;48.884;9.192;2023-03-01T08:14:24;21.38;;;17.92;;
568;SDS011;269;48.884;9.192;2023-03-01T08:16:51;17.40;;;15.57;;
568;SDS011;269;48.884;9.192;2023-03-01T08:19:18;18.48;;;16.58;;
568;SDS011;269;48.884;9.192;2023-03-01T08:21:47;17.33;;;15.70;;
568;SDS011;269;48.884;9.192;2023-03-01T08:24:14;18.40;;;16.52;;
568;SDS011;269;48.884;9.192;2023-03-01T08:26:41;17.70;;;15.95;;
568;SDS011;269;48.884;9.192;2023-03-01T08:29:08;17.60;;;15.90;;
568;SDS011;269;48.884;9.192;2023-03-01T08:31:37;19.20;;;17.40;;
568;SDS011;269;48.884;9.192;2023-03-01T08:34:06;18.67;;;16.77;;
568;SDS011;269;48.884;9.192;2023-03-01T08:36:38;18.10;;;16.33;;
568;SDS011;269;48.884;9.192;2023-03-01T08:39:09;18.40;;;16.58;;
568;SDS011;269;48.884;9.192;2023-03-01T08:41:37;18.20;;;16.40;;
568;SDS011;269;48.884;9.192;2023-03-01T08:44:04;18.38;;;16.48;;
568;SDS011;269;48.884;9.192;2023-03-01T08:46:32;18.48;;;16.70;;
568;SDS011;269;48.884;9.192;2023-03-01T08:49:03;17.80;;;16.10;;
568;SDS011;269;48.884;9.192;2023-03-01T08:51:30;19.40;;;17.48;;
568;SDS011;269;48.884;9.192;2023-03-01T08:54:02;18.30;;;16.60;;
568;SDS011;269;48.884;9.192;2023-03-01T08:56:30;19.85;;;17.85;;
568;SDS011;269;48.884;9.192;2023-03-01T08:58:57;18.23;;;16.50;;
568;SDS011;269;48.884;9.192;2023-03-01T09:01:24;18.15;;;16.38;;
568;SDS011;269;48.884;9.192;2023-03-01T09:03:51;17.75;;;15.95;;
568;SDS011;269;48.884;9.192;2023-03-01T09:06:18;18.83;;;16.88;;
568;SDS011;269;48.884;9.192;2023-03-01T09:08:47;18.65;;;16.95;;
568;SDS011;269;48.884;9.192;2023-03-01T09:11:16;17.85;;;16.15;;
568;SDS011;269;48.884;9.192;2023-03-01T09:13:45;18.45;;;16.67;;
568;SDS011;269;48.884;9.192;2023-03-01T09:16:14;19.08;;;17.30;;
568;SDS011;269;48.884;9.192;2023-03-01T09:18:43;19.92;;;17.92;;
568;SDS011;269;48.884;9.192;2023-03-01T09:21:11;18.37;;;16.40;;
568;SDS011;269;48.884;9.192;2023-03-01T09:23:41;19.27;;;17.58;;
568;SDS011;269;48.884;9.192;2023-03-01T09:26:10;19.00;;;17.20;;
568;SDS011;269;48.884;9.192;2023-03-01T09:28:38;18.57;;;16.90;;
568;SDS011;269;48.884;9.192;2023-03-01T09:31:07;17.90;;;16.17;;
568;SDS011;269;48.884;9.192;2023-03-01T09:33:34;19.20;;;17.50;;
568;SDS011;269;48.884;9.192;2023-03-01T09:36:02;17.17;;;15.67;;
568;SDS011;269;48.884;9.192;2023-03-01T09:38:31;17.97;;;16.37;;
568;SDS011;269;48.884;9.192;2023-03-01T09:40:58;18.83;;;17.13;;
568;SDS011;269;48.884;9.192;2023-03-01T09:43:26;19.03;;;17.43;;
568;SDS011;269;48.884;9.192;2023-03-01T09:45:58;18.47;;;16.60;;
568;SDS011;269;48.884;9.192;2023-03-01T09:48:41;18.80;;;17.07;;
568;SDS011;269;48.884;9.192;2023-03-01T09:51:12;19.60;;;17.70;;
568;SDS011;269;48.884;9.192;2023-03-01T09:53:43;18.50;;;16.60;;
568;SDS011;269;48.884;9.192;2023-03-01T09:56:12;19.87;;;17.77;;
568;SDS011;269;48.884;9.192;2023-03-01T09:58:47;19.30;;;17.43;;
568;SDS011;269;48.884;9.192;2023-03-01T10:01:23;18.80;;;17.10;;
568;SDS011;269;48.884;9.192;2023-03-01T10:04:13;19.20;;;17.37;;
568;SDS011;269;48.884;9.192;2023-03-01T10:06:55;18.73;;;17.03;;
568;SDS011;269;48.884;9.192;2023-03-01T10:09:29;19.00;;;17.23;;
568;SDS011;269;48.884;9.192;2023-03-01T10:12:00;18.03;;;16.47;;
568;SDS011;269;48.884;9.192;2023-03-01T10:14:30;18.63;;;16.93;;
568;SDS011;269;48.884;9.192;2023-03-01T10:17:02;19.10;;;17.20;;
568;SDS011;269;48.884;9.192;2023-03-01T10:19:32;17.40;;;15.90;;
568;SDS011;269;48.884;9.192;2023-03-01T10:22:07;18.83;;;17.10;;
568;SDS011;269;48.884;9.192;2023-03-01T10:24:39;18.40;;;16.90;;
568;SDS011;269;48.884;9.192;2023-03-01T10:27:07;17.63;;;16.03;;
568;SDS011;269;48.884;9.192;2023-03-01T10:29:43;17.97;;;16.27;;
568;SDS011;269;48.884;9.192;2023-03-01T10:32:15;18.17;;;16.57;;
568;SDS011;269;48.884;9.192;2023-03-01T10:34:44;18.50;;;16.90;;
568;SDS011;269;48.884;9.192;2023-03-01T10:37:12;18.30;;;16.60;;
568;SDS011;269;48.884;9.192;2023-03-01T10:42:33;18.43;;;16.67;;
568;SDS011;269;48.884;9.192;2023-03-01T10:45:16;17.77;;;16.17;;
568;SDS011;269;48.884;9.192;2023-03-01T10:47:53;18.40;;;16.80;;
568;SDS011;269;48.884;9.192;2023-03-01T10:50:31;17.50;;;16.00;;
568;SDS011;269;48.884;9.192;2023-03-01T10:52:59;17.90;;;16.30;;
568;SDS011;269;48.884;9.192;2023-03-01T10:55:29;17.07;;;15.60;;
568;SDS011;269;48.884;9.192;2023-03-01T10:58:07;16.73;;;15.33;;
568;SDS011;269;48.884;9.192;2023-03-01T11:00:46;17.13;;;15.63;;
568;SDS011;269;48.884;9.192;2023-03-01T11:03:17;18.63;;;17.07;;
568;SDS011;269;48.884;9.192;2023-03-01T11:05:52;17.67;;;16.13;;
568;SDS011;269;48.884;9.192;2023-03-01T11:08:38;17.40;;;15.83;;
568;SDS011;269;48.884;9.192;2023-03-01T11:11:13;17.10;;;15.70;;
568;SDS011;269;48.884;9.192;2023-03-01T11:13:57;17.87;;;16.37;;
568;SDS011;269;48.884;9.192;2023-03-01T11:16:27;18.00;;;16.50;;
568;SDS011;269;48.884;9.192;2023-03-01T11:19:06;17.30;;;15.80;;
568;SDS011;269;48.884;9.192;2023-03-01T11:21:50;17.70;;;16.20;;
568;SDS011;269;48.884;9.192;2023-03-01T11:24:23;16.90;;;15.50;;
568;SDS011;269;48.884;9.192;2023-03-01T11:26:56;15.83;;;14.50;;
568;SDS011;269;48.884;9.192;2023-03-01T11:29:27;20.50;;;17.13;;
568;SDS011;269;48.884;9.192;2023-03-01T11:32:00;16.60;;;15.20;;
568;SDS011;269;48.884;9.192;2023-03-01T11:34:34;16.83;;;15.43;;
568;SDS011;269;48.884;9.192;2023-03-01T11:37:09;16.50;;;15.20;;
568;SDS011;269;48.884;9.192;2023-03-01T11:39:44;16.10;;;14.70;;
568;SDS011;269;48.884;9.192;2023-03-01T11:42:18;16.40;;;14.90;;
568;SDS011;269;48.884;9.192;2023-03-01T11:44:48;16.67;;;15.27;;
568;SDS011;269;48.884;9.192;2023-03-01T11:47:27;16.70;;;15.30;;
568;SDS011;269;48.884;9.192;2023-03-01T11:50:02;16.70;;;15.30;;
568;SDS011;269;48.884;9.192;2023-03-01T11:52:42;16.93;;;15.53;;
568;SDS011;269;48.884;9.192;2023-03-01T11:55:18;16.60;;;15.20;;
568;SDS011;269;48.884;9.192;2023-03-01T11:58:12;17.73;;;16.23;;
568;SDS011;269;48.884;9.192;2023-03-01T12:01:01;15.63;;;14.27;;
568;SDS011;269;48.884;9.192;2023-03-01T12:03:44;17.33;;;15.90;;
568;SDS011;269;48.884;9.192;2023-03-01T12:06:34;16.03;;;14.73;;
568;SDS011;269;48.884;9.192;2023-03-01T12:09:18;15.50;;;14.20;;
568;SDS011;269;48.884;9.192;2023-03-01T12:14:51;14.30;;;13.20;;
568;SDS011;269;48.884;9.192;2023-03-01T12:17:49;17.57;;;15.97;;
568;SDS011;269;48.884;9.192;2023-03-01T12:20:32;17.90;;;16.50;;
568;SDS011;269;48.884;9.192;2023-03-01T12:26:00;18.10;;;16.40;;
568;SDS011;269;48.884;9.192;2023-03-01T12:28:45;16.57;;;15.27;;
568;SDS011;269;48.884;9.192;2023-03-01T12:34:19;16.80;;;15.40;;
568;SDS011;269;48.884;9.192;2023-03-01T12:37:01;16.97;;;15.67;;
568;SDS011;269;48.884;9.192;2023-03-01T12:39:50;17.20;;;15.80;;
568;SDS011;269;48.884;9.192;2023-03-01T12:42:30;16.23;;;14.83;;
568;SDS011;269;48.884;9.192;2023-03-01T12:45:24;15.83;;;14.53;;
568;SDS011;269;48.884;9.192;2023-03-01T12:48:03;16.83;;;15.43;;
568;SDS011;269;48.884;9.192;2023-03-01T12:50:40;15.97;;;14.57;;
568;SDS011;269;48.884;9.192;2023-03-01T12:53:15;15.10;;;13.73;;
568;SDS011;269;48.884;9.192;2023-03-01T12:55:50;16.07;;;14.77;;
568;SDS011;269;48.884;9.192;2023-03-01T12:58:23;14.90;;;13.70;;
568;SDS011;269;48.884;9.192;2023-03-01T13:01:00;16.00;;;14.70;;
568;SDS011;269;48.884;9.192;2023-03-01T13:03:48;15.70;;;14.37;;
568;SDS011;269;48.884;9.192;2023-03-01T13:06:29;16.10;;;14.70;;
568;SDS011;269;48.884;9.192;2023-03-01T13:09:08;15.90;;;14.70;;
568;SDS011;269;48.884;9.192;2023-03-01T13:11:45;15.47;;;14.20;;
568;SDS011;269;48.884;9.192;2023-03-01T13:17:31;16.40;;;14.90;;
568;SDS011;269;48.884;9.192;2023-03-01T13:20:00;15.67;;;14.37;;
568;SDS011;269;48.884;9.192;2023-03-01T13:22:30;17.73;;;16.13;;
568;SDS011;269;48.884;9.192;2023-03-01T13:25:10;16.77;;;15.37;;
568;SDS011;269;48.884;9.192;2023-03-01T13:27:40;18.00;;;16.20;;
568;SDS011;269;48.884;9.192;2023-03-01T13:36:06;18.43;;;16.83;;
568;SDS011;269;48.884;9.192;2023-03-01T13:38:37;16.07;;;14.73;;
568;SDS011;269;48.884;9.192;2023-03-01T13:41:06;16.97;;;15.63;;
568;SDS011;269;48.884;9.192;2023-03-01T13:43:34;15.50;;;14.10;;
568;SDS011;269;48.884;9.192;2023-03-01T13:46:09;17.93;;;16.40;;
568;SDS011;269;48.884;9.192;2023-03-01T13:48:39;17.30;;;15.80;;
568;SDS011;269;48.884;9.192;2023-03-01T13:51:07;17.93;;;16.33;;
568;SDS011;269;48.884;9.192;2023-03-01T13:53:39;16.50;;;15.00;;
568;SDS011;269;48.884;9.192;2023-03-01T13:56:09;18.03;;;16.47;;
568;SDS011;269;48.884;9.192;2023-03-01T13:58:46;18.10;;;16.60;;
568;SDS011;269;48.884;9.192;2023-03-01T14:01:23;16.97;;;15.20;;
568;SDS011;269;48.884;9.192;2023-03-01T14:03:51;16.53;;;15.13;;
568;SDS011;269;48.884;9.192;2023-03-01T14:06:20;17.60;;;16.00;;
568;SDS011;269;48.884;9.192;2023-03-01T14:08:49;17.63;;;16.03;;
568;SDS011;269;48.884;9.192;2023-03-01T14:14:32;17.73;;;16.20;;
568;SDS011;269;48.884;9.192;2023-03-01T14:17:18;17.73;;;15.90;;
568;SDS011;269;48.884;9.192;2023-03-01T14:19:54;17.37;;;15.87;;
568;SDS011;269;48.884;9.192;2023-03-01T14:22:24;17.43;;;16.03;;
568;SDS011;269;48.884;9.192;2023-03-01T14:24:55;16.97;;;15.47;;
568;SDS011;269;48.884;9.192;2023-03-01T14:27:25;17.10;;;15.60;;
568;SDS011;269;48.884;9.192;2023-03-01T14:29:56;16.40;;;15.00;;
568;SDS011;269;48.884;9.192;2023-03-01T14:32:26;17.10;;;15.57;;
568;SDS011;269;48.884;9.192;2023-03-01T14:34:55;16.80;;;15.40;;
568;SDS011;269;48.884;9.192;2023-03-01T14:37:24;18.37;;;16.77;;
568;SDS011;269;48.884;9.192;2023-03-01T14:39:53;17.30;;;15.80;;
568;SDS011;269;48.884;9.192;2023-03-01T14:42:21;18.63;;;17.03;;
568;SDS011;269;48.884;9.192;2023-03-01T14:44:50;17.27;;;15.77;;
568;SDS011;269;48.884;9.192;2023-03-01T14:47:23;16.73;;;15.23;;
568;SDS011;269;48.884;9.192;2023-03-01T14:49:57;17.67;;;16.07;;
568;SDS011;269;48.884;9.192;2023-03-01T14:52:28;18.17;;;16.40;;
568;SDS011;269;48.884;9.192;2023-03-01T14:55:02;16.33;;;14.93;;
568;SDS011;269;48.884;9.192;2023-03-01T14:57:31;17.27;;;15.77;;
568;SDS011;269;48.884;9.192;2023-03-01T14:59:59;17.53;;;15.87;;
568;SDS011;269;48.884;9.192;2023-03-01T15:02:32;17.57;;;16.07;;
568;SDS011;269;48.884;9.192;2023-03-01T15:05:01;18.00;;;16.30;;
568;SDS011;269;48.884;9.192;2023-03-01T15:07:31;17.70;;;16.10;;
568;SDS011;269;48.884;9.192;2023-03-01T15:10:03;18.43;;;16.83;;
568;SDS011;269;48.884;9.192;2023-03-01T15:12:35;17.57;;;15.87;;
568;SDS011;269;48.884;9.192;2023-03-01T15:15:21;17.00;;;15.50;;
568;SDS011;269;48.884;9.192;2023-03-01T15:18:01;17.03;;;15.30;;
568;SDS011;269;48.884;9.192;2023-03-01T15:20:31;18.30;;;16.60;;
568;SDS011;269;48.884;9.192;2023-03-01T15:23:02;18.07;;;16.43;;
568;SDS011;269;48.884;9.192;2023-03-01T15:25:30;17.37;;;15.70;;
568;SDS011;269;48.884;9.192;2023-03-01T15:27:59;19.00;;;15.57;;
568;SDS011;269;48.884;9.192;2023-03-01T15:30:29;17.87;;;16.07;;
568;SDS011;269;48.884;9.192;2023-03-01T15:33:17;16.70;;;15.20;;
568;SDS011;269;48.884;9.192;2023-03-01T15:35:47;16.93;;;15.40;;
568;SDS011;269;48.884;9.192;2023-03-01T15:38:28;17.10;;;15.60;;
568;SDS011;269;48.884;9.192;2023-03-01T15:40:58;15.97;;;14.47;;
568;SDS011;269;48.884;9.192;2023-03-01T15:43:40;16.87;;;15.17;;
568;SDS011;269;48.884;9.192;2023-03-01T15:46:19;17.80;;;15.90;;
568;SDS011;269;48.884;9.192;2023-03-01T15:48:52;17.97;;;16.37;;
568;SDS011;269;48.884;9.192;2023-03-01T15:51:22;16.60;;;15.10;;
568;SDS011;269;48.884;9.192;2023-03-01T15:53:55;18.08;;;15.80;;
568;SDS011;269;48.884;9.192;2023-03-01T15:56:25;17.83;;;16.20;;
568;SDS011;269;48.884;9.192;2023-03-01T15:58:52;16.90;;;15.30;;
568;SDS011;269;48.884;9.192;2023-03-01T16:01:18;17.88;;;16.17;;